createdAt,value
2023-01-05T00:01:57.217Z,7.61
2023-01-05T00:04:26.886Z,7.60
2023-01-05T00:06:56.434Z,7.61
2023-01-05T00:09:25.863Z,7.65
2023-01-05T00:12:07.761Z,7.57
2023-01-05T00:14:52.352Z,7.56
2023-01-05T00:17:35.419Z,7.60
2023-01-05T00:20:18.587Z,7.64
2023-01-05T00:22:50.174Z,7.63
2023-01-05T00:25:21.651Z,7.62
2023-01-05T00:27:52.232Z,7.64
2023-01-05T00:30:26.173Z,7.63
2023-01-05T00:32:55.909Z,7.59
2023-01-05T00:35:26.043Z,7.57
2023-01-05T00:37:55.536Z,7.58
2023-01-05T00:40:25.451Z,7.60
2023-01-05T00:42:54.903Z,7.57
2023-01-05T00:45:27.058Z,7.58
2023-01-05T00:47:56.586Z,7.55
2023-01-05T00:50:26.306Z,7.55
2023-01-05T00:52:55.825Z,7.53
2023-01-05T00:55:25.421Z,7.52
2023-01-05T00:57:54.916Z,7.55
2023-01-05T01:00:27.030Z,7.55
2023-01-05T01:02:56.613Z,7.52
2023-01-05T01:05:26.265Z,7.53
2023-01-05T01:07:55.866Z,7.53
2023-01-05T01:10:25.492Z,7.51
2023-01-05T01:12:55.961Z,7.48
2023-01-05T01:15:28.072Z,7.41
2023-01-05T01:17:57.644Z,7.40
2023-01-05T01:20:27.162Z,7.42
2023-01-05T01:22:56.710Z,7.35
2023-01-05T01:25:26.272Z,7.40
2023-01-05T01:27:55.690Z,7.34
2023-01-05T01:30:27.927Z,7.36
2023-01-05T01:32:57.482Z,7.28
2023-01-05T01:35:26.984Z,7.23
2023-01-05T01:37:56.419Z,7.12
2023-01-05T01:40:26.000Z,7.02
2023-01-05T01:42:55.542Z,7.00
2023-01-05T01:45:29.824Z,6.91
2023-01-05T01:48:00.705Z,6.86
2023-01-05T01:50:33.522Z,6.92
2023-01-05T01:53:06.817Z,6.84
2023-01-05T01:55:37.620Z,6.86
2023-01-05T01:58:11.410Z,6.91
2023-01-05T02:00:43.986Z,6.83
2023-01-05T02:03:13.668Z,6.87
2023-01-05T02:05:43.161Z,6.87
2023-01-05T02:08:13.653Z,6.91
2023-01-05T02:10:58.242Z,6.90
2023-01-05T02:13:41.325Z,6.95
2023-01-05T02:16:19.720Z,6.88
2023-01-05T02:19:06.564Z,6.84
2023-01-05T02:21:41.047Z,6.89
2023-01-05T02:24:35.639Z,6.88
2023-01-05T02:27:28.684Z,6.85
2023-01-05T02:30:36.043Z,6.82
2023-01-05T02:33:15.494Z,6.80
2023-01-05T02:35:50.949Z,6.83
2023-01-05T02:38:24.356Z,6.71
2023-01-05T02:40:58.224Z,6.79
2023-01-05T02:43:27.726Z,6.67
2023-01-05T02:45:57.268Z,6.79
2023-01-05T02:48:29.471Z,6.68
2023-01-05T02:51:01.592Z,6.65
2023-01-05T02:53:34.226Z,6.64
2023-01-05T02:56:05.769Z,6.66
2023-01-05T02:58:37.118Z,6.67
2023-01-05T03:01:10.264Z,6.64
2023-01-05T03:03:45.156Z,6.68
2023-01-05T03:06:17.639Z,6.65
2023-01-05T03:08:52.048Z,6.62
2023-01-05T03:11:34.088Z,6.70
2023-01-05T03:14:08.294Z,6.79
2023-01-05T03:16:39.800Z,6.78
2023-01-05T03:19:27.425Z,6.87
2023-01-05T03:22:10.613Z,6.84
2023-01-05T03:24:53.502Z,6.87
2023-01-05T03:27:35.915Z,6.94
2023-01-05T03:30:18.578Z,6.94
2023-01-05T03:33:04.374Z,6.95
2023-01-05T03:35:38.131Z,6.93
2023-01-05T03:38:18.089Z,6.87
2023-01-05T03:40:48.477Z,6.91
2023-01-05T03:43:18.094Z,6.88
2023-01-05T03:45:49.388Z,6.91
2023-01-05T03:48:18.890Z,6.92
2023-01-05T03:50:51.223Z,6.89
2023-01-05T03:53:20.630Z,6.89
2023-01-05T03:55:50.124Z,6.86
2023-01-05T03:58:19.540Z,6.83
2023-01-05T04:00:48.981Z,6.78
2023-01-05T04:03:18.446Z,6.76
2023-01-05T04:05:47.954Z,6.74
2023-01-05T04:08:19.954Z,6.66
2023-01-05T04:10:49.396Z,6.67
2023-01-05T04:13:18.894Z,6.66
2023-01-05T04:15:48.442Z,6.58
2023-01-05T04:18:18.001Z,6.57
2023-01-05T04:20:47.649Z,6.55
2023-01-05T04:23:17.087Z,6.48
2023-01-05T04:25:49.337Z,6.41
2023-01-05T04:28:18.945Z,6.41
2023-01-05T04:30:51.640Z,6.34
2023-01-05T04:33:21.314Z,6.26
2023-01-05T04:35:51.214Z,6.25
2023-01-05T04:38:20.740Z,6.24
2023-01-05T04:40:56.193Z,6.20
2023-01-05T04:43:25.639Z,6.16
2023-01-05T04:45:55.112Z,6.18
2023-01-05T04:48:24.637Z,6.15
2023-01-05T04:50:57.708Z,6.15
2023-01-05T04:53:27.354Z,6.14
2023-01-05T04:55:59.552Z,6.19
2023-01-05T04:58:29.085Z,6.18
2023-01-05T05:00:58.580Z,6.17
2023-01-05T05:03:32.775Z,6.13
2023-01-05T05:06:02.720Z,6.15
2023-01-05T05:08:32.241Z,6.15
2023-01-05T05:11:04.372Z,6.08
2023-01-05T05:13:33.915Z,6.10
2023-01-05T05:16:03.492Z,6.13
2023-01-05T05:18:32.965Z,6.18
2023-01-05T05:21:02.387Z,6.22
2023-01-05T05:23:31.909Z,6.16
2023-01-05T05:26:04.164Z,6.17
2023-01-05T05:28:33.676Z,6.17
2023-01-05T05:31:03.266Z,6.20
2023-01-05T05:33:32.841Z,6.20
2023-01-05T05:36:02.333Z,6.19
2023-01-05T05:38:31.760Z,6.30
2023-01-05T05:41:03.891Z,6.22
2023-01-05T05:43:33.405Z,6.32
2023-01-05T05:46:02.972Z,6.25
2023-01-05T05:48:32.521Z,6.23
2023-01-05T05:51:02.040Z,6.30
2023-01-05T05:53:31.502Z,6.26
2023-01-05T05:56:01.049Z,6.21
2023-01-05T05:58:33.130Z,6.20
2023-01-05T06:01:02.574Z,6.24
2023-01-05T06:03:32.166Z,6.29
2023-01-05T06:06:03.061Z,6.29
2023-01-05T06:08:32.860Z,6.35
2023-01-05T06:11:02.424Z,6.34
2023-01-05T06:13:34.817Z,6.39
2023-01-05T06:16:04.398Z,6.42
2023-01-05T06:18:33.995Z,6.41
2023-01-05T06:21:03.447Z,6.43
2023-01-05T06:23:33.005Z,6.41
2023-01-05T06:26:02.541Z,6.43
2023-01-05T06:28:34.657Z,6.43
2023-01-05T06:31:04.233Z,6.41
2023-01-05T06:33:33.772Z,6.42
2023-01-05T06:36:03.292Z,6.43
2023-01-05T06:38:32.755Z,6.44
2023-01-05T06:41:02.234Z,6.42
2023-01-05T06:43:34.607Z,6.40
2023-01-05T06:46:04.257Z,6.41
2023-01-05T06:48:33.761Z,6.43
2023-01-05T06:51:03.268Z,6.46
2023-01-05T06:53:32.800Z,6.45
2023-01-05T06:56:02.225Z,6.46
2023-01-05T06:58:34.236Z,6.46
2023-01-05T07:01:03.863Z,6.45
2023-01-05T07:03:33.563Z,6.45
2023-01-05T07:06:04.850Z,6.48
2023-01-05T07:08:36.239Z,6.51
2023-01-05T07:11:05.902Z,6.50
2023-01-05T07:13:37.927Z,6.51
2023-01-05T07:16:08.317Z,6.53
2023-01-05T07:18:37.851Z,6.54
2023-01-05T07:21:07.586Z,6.53
2023-01-05T07:23:37.948Z,6.54
2023-01-05T07:26:07.818Z,6.61
2023-01-05T07:28:40.400Z,6.62
2023-01-05T07:31:10.206Z,6.64
2023-01-05T07:33:40.489Z,6.66
2023-01-05T07:36:11.046Z,6.67
2023-01-05T07:38:40.588Z,6.67
2023-01-05T07:41:10.674Z,6.70
2023-01-05T07:43:42.778Z,6.71
2023-01-05T07:46:12.370Z,6.71
2023-01-05T07:48:41.851Z,6.68
2023-01-05T07:51:13.308Z,6.66
2023-01-05T07:53:44.592Z,6.66
2023-01-05T07:56:14.953Z,6.61
2023-01-05T07:58:47.042Z,6.52
2023-01-05T08:01:18.494Z,6.56
2023-01-05T08:03:48.138Z,6.64
2023-01-05T08:06:19.708Z,6.68
2023-01-05T08:08:49.632Z,6.73
2023-01-05T08:11:21.884Z,6.73
2023-01-05T08:14:08.959Z,6.70
2023-01-05T08:16:38.428Z,6.69
2023-01-05T08:19:11.011Z,6.60
2023-01-05T08:21:41.182Z,6.41
2023-01-05T08:24:10.827Z,6.20
2023-01-05T08:26:40.339Z,6.08
2023-01-05T08:29:12.495Z,5.86
2023-01-05T08:31:42.471Z,5.79
2023-01-05T08:34:11.971Z,5.75
2023-01-05T08:36:41.689Z,5.74
2023-01-05T08:39:13.289Z,5.75
2023-01-05T08:41:43.724Z,5.74
2023-01-05T08:44:17.278Z,5.74
2023-01-05T08:46:46.831Z,5.74
2023-01-05T08:49:17.306Z,5.74
2023-01-05T08:51:46.880Z,5.70
2023-01-05T08:54:16.486Z,5.70
2023-01-05T08:56:46.127Z,5.71
2023-01-05T08:59:18.266Z,5.70
2023-01-05T09:01:48.160Z,5.62
2023-01-05T09:04:17.886Z,5.49
2023-01-05T09:06:47.582Z,5.28
2023-01-05T09:09:17.049Z,5.13
2023-01-05T09:11:46.507Z,5.05
2023-01-05T09:14:18.870Z,5.10
2023-01-05T09:19:37.961Z,5.11
2023-01-05T09:22:07.574Z,5.11
2023-01-05T09:24:37.266Z,5.12
2023-01-05T09:27:07.795Z,5.11
2023-01-05T09:29:39.876Z,5.07
2023-01-05T09:32:11.528Z,5.14
2023-01-05T09:34:41.122Z,5.21
2023-01-05T09:37:10.691Z,5.18
2023-01-05T09:39:40.218Z,5.20
2023-01-05T09:42:10.279Z,5.25
2023-01-05T09:44:44.320Z,5.17
2023-01-05T09:47:16.927Z,5.23
2023-01-05T09:49:47.113Z,5.23
2023-01-05T09:52:16.783Z,5.18
2023-01-05T09:54:46.277Z,5.11
2023-01-05T09:57:19.882Z,5.13
2023-01-05T09:59:53.554Z,5.58
2023-01-05T10:02:31.762Z,5.54
2023-01-05T10:05:02.219Z,5.45
2023-01-05T10:07:37.451Z,5.45
2023-01-05T10:10:15.562Z,5.15
2023-01-05T10:13:00.271Z,5.13
2023-01-05T10:15:35.970Z,5.21
2023-01-05T10:18:12.266Z,5.42
2023-01-05T10:20:48.414Z,5.78
2023-01-05T10:23:27.990Z,5.61
2023-01-05T10:26:00.965Z,5.42
2023-01-05T10:28:37.163Z,5.41
2023-01-05T10:31:15.538Z,5.49
2023-01-05T10:33:56.651Z,5.38
2023-01-05T10:39:34.543Z,5.30
2023-01-05T10:42:08.862Z,5.29
2023-01-05T10:44:50.132Z,5.23
2023-01-05T10:47:22.657Z,5.30
2023-01-05T10:49:52.282Z,5.26
2023-01-05T10:52:23.630Z,5.29
2023-01-05T10:54:55.605Z,5.26
2023-01-05T10:57:40.348Z,5.32
2023-01-05T11:00:18.293Z,5.36
2023-01-05T11:02:53.963Z,5.42
2023-01-05T11:05:30.290Z,5.45
2023-01-05T11:08:01.949Z,5.42
2023-01-05T11:10:32.941Z,5.37
2023-01-05T11:13:07.791Z,5.33
2023-01-05T11:15:44.103Z,5.35
2023-01-05T11:18:27.995Z,5.35
2023-01-05T11:21:15.313Z,5.32
2023-01-05T11:23:46.261Z,5.32
2023-01-05T11:26:34.527Z,5.34
2023-01-05T11:29:06.696Z,5.36
2023-01-05T11:31:38.237Z,5.31
2023-01-05T11:34:19.062Z,5.24
2023-01-05T11:36:54.634Z,5.23
2023-01-05T11:39:29.586Z,5.22
2023-01-05T11:42:23.356Z,5.23
2023-01-05T11:44:56.511Z,5.27
2023-01-05T11:47:35.304Z,5.30
2023-01-05T11:50:22.040Z,5.32
2023-01-05T11:52:54.005Z,5.31
2023-01-05T11:55:31.051Z,5.31
2023-01-05T11:58:33.886Z,5.43
2023-01-05T12:01:38.989Z,5.35
2023-01-05T12:04:38.702Z,5.40
2023-01-05T12:07:34.430Z,5.52
2023-01-05T12:10:16.189Z,5.59
2023-01-05T12:12:55.578Z,5.65
2023-01-05T12:15:40.527Z,5.68
2023-01-05T12:18:20.105Z,5.76
2023-01-05T12:20:58.547Z,5.80
2023-01-05T12:23:41.796Z,5.83
2023-01-05T12:26:21.028Z,5.80
2023-01-05T12:35:26.931Z,6.03
2023-01-05T12:38:08.185Z,6.13
2023-01-05T12:40:52.264Z,6.15
2023-01-05T12:43:30.350Z,6.16
2023-01-05T12:46:19.545Z,6.22
2023-01-05T12:48:51.096Z,6.23
2023-01-05T12:51:23.507Z,6.29
2023-01-05T12:53:56.649Z,6.27
2023-01-05T12:56:33.480Z,6.33
2023-01-05T12:59:10.812Z,6.34
2023-01-05T13:01:44.185Z,6.31
2023-01-05T13:04:24.943Z,6.28
2023-01-05T13:06:57.214Z,6.26
2023-01-05T13:09:28.067Z,6.27
2023-01-05T13:12:04.060Z,6.24
2023-01-05T13:14:36.701Z,6.22
2023-01-05T13:17:09.363Z,6.25
2023-01-05T13:19:44.246Z,6.27
2023-01-05T13:22:19.220Z,6.30
2023-01-05T13:24:53.546Z,6.33
2023-01-05T13:27:26.188Z,6.28
2023-01-05T13:29:59.443Z,6.21
2023-01-05T13:32:38.567Z,6.20
2023-01-05T13:35:24.595Z,6.17
2023-01-05T13:38:28.733Z,6.13
2023-01-05T13:41:21.934Z,6.10
2023-01-05T13:44:36.460Z,6.10
2023-01-05T13:47:27.315Z,6.12
2023-01-05T13:50:22.373Z,6.20
2023-01-05T13:53:00.918Z,6.21
2023-01-05T13:55:31.128Z,6.16
2023-01-05T13:58:03.194Z,6.17
2023-01-05T14:00:35.901Z,6.14
2023-01-05T14:03:10.096Z,6.08
2023-01-05T14:05:50.341Z,6.05
2023-01-05T14:08:23.648Z,6.07
2023-01-05T14:11:12.166Z,6.08
2023-01-05T14:13:49.999Z,6.17
2023-01-05T14:16:49.643Z,6.14
2023-01-05T14:19:26.715Z,6.13
2023-01-05T14:22:03.968Z,6.19
2023-01-05T14:24:36.812Z,6.18
2023-01-05T14:27:11.749Z,6.21
2023-01-05T14:30:04.999Z,6.22
2023-01-05T14:32:36.635Z,6.17
2023-01-05T14:35:22.025Z,6.20
2023-01-05T14:37:59.648Z,6.20
2023-01-05T14:40:36.607Z,6.24
2023-01-05T14:43:10.954Z,6.24
2023-01-05T14:45:42.245Z,6.29
2023-01-05T14:48:30.869Z,6.31
2023-01-05T14:51:28.961Z,6.24
2023-01-05T14:53:59.565Z,6.39
2023-01-05T14:56:30.485Z,6.33
2023-01-05T14:59:19.862Z,6.35
2023-01-05T15:01:52.349Z,6.22
2023-01-05T15:04:24.496Z,6.23
2023-01-05T15:07:11.541Z,6.21
2023-01-05T15:10:00.036Z,6.21
2023-01-05T15:12:40.866Z,6.22
2023-01-05T15:15:28.015Z,6.19
2023-01-05T15:18:07.300Z,6.17
2023-01-05T15:21:18.408Z,6.11
2023-01-05T15:24:12.336Z,6.04
2023-01-05T15:27:13.193Z,6.13
2023-01-05T15:29:55.531Z,6.52
2023-01-05T15:32:27.104Z,6.21
2023-01-05T15:34:59.274Z,6.08
2023-01-05T15:37:36.104Z,6.02
2023-01-05T15:40:09.910Z,5.97
2023-01-05T15:42:42.356Z,5.90
2023-01-05T15:45:20.059Z,6.02
2023-01-05T15:47:49.951Z,6.12
2023-01-05T15:50:22.389Z,5.98
2023-01-05T15:52:57.004Z,6.15
2023-01-05T15:55:30.788Z,6.30
2023-01-05T15:58:03.802Z,6.16
2023-01-05T16:00:35.201Z,5.92
2023-01-05T16:03:05.097Z,5.94
2023-01-05T16:05:36.312Z,5.93
2023-01-05T16:08:08.984Z,5.90
2023-01-05T16:10:42.326Z,5.91
2023-01-05T16:13:15.768Z,5.84
2023-01-05T16:15:47.421Z,5.85
2023-01-05T16:18:20.698Z,5.77
2023-01-05T16:20:52.259Z,5.67
2023-01-05T16:23:24.872Z,5.61
2023-01-05T16:25:59.746Z,5.58
2023-01-05T16:28:29.359Z,5.62
2023-01-05T16:30:59.059Z,5.65
2023-01-05T16:33:35.751Z,5.60
2023-01-05T16:36:15.223Z,5.58
2023-01-05T16:38:44.707Z,5.71
2023-01-05T16:41:54.752Z,5.61
2023-01-05T16:44:24.290Z,5.64
2023-01-05T16:47:07.393Z,5.63
2023-01-05T16:49:53.319Z,5.54
2023-01-05T16:52:30.998Z,5.52
2023-01-05T16:55:28.834Z,5.54
2023-01-05T16:58:01.948Z,5.60
2023-01-05T17:00:40.182Z,5.63
2023-01-05T17:03:31.620Z,5.84
2023-01-05T17:06:02.746Z,6.31
2023-01-05T17:08:36.038Z,6.23
2023-01-05T17:11:06.424Z,6.15
2023-01-05T17:13:42.552Z,6.20
2023-01-05T17:16:13.654Z,6.00
2023-01-05T17:18:43.556Z,5.80
2023-01-05T17:21:17.650Z,5.69
2023-01-05T17:23:49.520Z,5.64
2023-01-05T17:26:22.604Z,5.65
2023-01-05T17:29:00.778Z,5.65
2023-01-05T17:31:30.821Z,5.63
2023-01-05T17:34:00.388Z,5.64
2023-01-05T17:36:33.276Z,5.63
2023-01-05T17:39:03.225Z,5.78
2023-01-05T17:41:32.688Z,5.74
2023-01-05T17:44:04.765Z,5.70
2023-01-05T17:46:36.207Z,5.72
2023-01-05T17:49:05.949Z,5.63
2023-01-05T17:51:35.422Z,5.60
2023-01-05T17:54:04.951Z,5.64
2023-01-05T17:56:34.520Z,5.68
2023-01-05T17:59:06.778Z,5.68
2023-01-05T18:01:36.486Z,5.65
2023-01-05T18:04:06.136Z,5.58
2023-01-05T18:06:35.706Z,5.66
2023-01-05T18:09:05.239Z,5.66
2023-01-05T18:16:57.186Z,5.42
2023-01-05T18:19:26.719Z,5.40
2023-01-05T18:21:56.334Z,5.38
2023-01-05T18:24:25.796Z,5.35
2023-01-05T18:26:55.976Z,5.42
2023-01-05T18:29:28.278Z,5.42
2023-01-05T18:31:57.907Z,5.36
2023-01-05T18:34:27.448Z,5.56
2023-01-05T18:37:01.993Z,6.00
2023-01-05T18:39:35.968Z,5.90
2023-01-05T18:42:05.483Z,5.79
2023-01-05T18:44:38.557Z,5.61
2023-01-05T18:48:17.344Z,5.47
2023-01-05T18:50:51.044Z,5.22
2023-01-05T18:53:21.461Z,5.38
2023-01-05T18:55:51.232Z,5.61
2023-01-05T18:58:20.783Z,5.46
2023-01-05T19:00:50.238Z,5.32
2023-01-05T19:03:22.315Z,5.14
2023-01-05T19:05:51.847Z,5.23
2023-01-05T19:08:21.289Z,5.24
2023-01-05T19:10:50.802Z,5.26
2023-01-05T19:13:20.262Z,5.22
2023-01-05T19:15:49.730Z,5.10
2023-01-05T19:18:21.822Z,5.25
2023-01-05T19:20:59.892Z,5.19
2023-01-05T19:23:29.493Z,5.20
2023-01-05T19:26:04.104Z,5.27
2023-01-05T19:28:34.345Z,5.23
2023-01-05T19:31:08.255Z,5.14
2023-01-05T19:33:40.894Z,5.10
2023-01-05T19:36:13.497Z,5.12
2023-01-05T19:38:43.560Z,5.18
2023-01-05T19:41:15.610Z,5.23
2023-01-05T19:43:45.274Z,5.23
2023-01-05T19:46:16.761Z,5.67
2023-01-05T19:48:49.712Z,5.73
2023-01-05T19:51:22.430Z,6.94
2023-01-05T19:53:55.548Z,6.82
2023-01-05T19:56:26.378Z,6.87
2023-01-05T19:58:57.522Z,7.01
2023-01-05T20:01:29.396Z,7.51
2023-01-05T20:04:01.422Z,7.12
2023-01-05T20:06:32.784Z,6.60
2023-01-05T20:09:04.893Z,6.30
2023-01-05T20:11:39.541Z,6.28
2023-01-05T20:14:10.699Z,6.28
2023-01-05T20:16:40.288Z,6.50
2023-01-05T20:19:14.130Z,6.52
2023-01-05T20:21:43.795Z,6.42
2023-01-05T20:24:17.459Z,6.30
2023-01-05T20:26:48.211Z,6.48
2023-01-05T20:29:19.248Z,6.46
2023-01-05T20:31:50.868Z,6.39
2023-01-05T20:34:28.095Z,6.38
2023-01-05T20:36:57.553Z,6.51
2023-01-05T20:39:27.355Z,6.56
2023-01-05T20:42:04.593Z,6.49
2023-01-05T20:44:36.763Z,6.66
2023-01-05T20:47:06.989Z,6.68
2023-01-05T20:49:40.319Z,6.20
2023-01-05T20:52:11.703Z,6.43
2023-01-05T20:54:41.709Z,6.48
2023-01-05T20:57:11.507Z,6.52
2023-01-05T20:59:42.173Z,6.49
2023-01-05T21:02:24.248Z,6.46
2023-01-05T21:04:57.010Z,6.34
2023-01-05T21:07:26.433Z,6.51
2023-01-05T21:09:56.124Z,6.22
2023-01-05T21:12:25.650Z,6.24
2023-01-05T21:14:55.257Z,6.48
2023-01-05T21:17:24.968Z,6.30
2023-01-05T21:19:58.572Z,6.39
2023-01-05T21:22:28.086Z,6.16
2023-01-05T21:24:57.616Z,6.41
2023-01-05T21:27:27.088Z,6.46
2023-01-05T21:29:56.957Z,6.40
2023-01-05T21:32:27.427Z,6.38
2023-01-05T21:34:59.476Z,6.29
2023-01-05T21:37:31.507Z,6.28
2023-01-05T21:40:02.255Z,6.34
2023-01-05T21:42:45.278Z,6.52
2023-01-05T21:45:15.508Z,6.53
2023-01-05T21:47:44.886Z,6.43
2023-01-05T21:50:37.770Z,6.31
2023-01-05T21:53:31.994Z,6.26
2023-01-05T21:56:14.015Z,6.14
2023-01-05T21:58:43.719Z,6.15
2023-01-05T22:01:13.312Z,6.32
2023-01-05T22:03:42.848Z,6.30
2023-01-05T22:06:14.923Z,6.37
2023-01-05T22:08:44.585Z,6.33
2023-01-05T22:11:14.461Z,6.44
2023-01-05T22:13:43.913Z,6.33
2023-01-05T22:16:13.490Z,6.21
2023-01-05T22:18:43.069Z,6.21
2023-01-05T22:21:15.138Z,6.28
2023-01-05T22:23:44.587Z,6.12
2023-01-05T22:26:16.158Z,6.11
2023-01-05T22:28:47.414Z,6.19
2023-01-05T22:31:20.716Z,6.08
2023-01-05T22:33:52.156Z,6.08
2023-01-05T22:36:25.538Z,5.96
2023-01-05T22:38:55.643Z,6.11
2023-01-05T22:41:26.836Z,6.07
2023-01-05T22:43:56.596Z,6.01
2023-01-05T22:46:30.725Z,6.00
2023-01-05T22:49:01.124Z,5.95
2023-01-05T22:51:35.329Z,5.91
2023-01-05T22:54:06.655Z,6.08
2023-01-05T22:56:37.415Z,5.93
2023-01-05T22:59:07.295Z,5.84
2023-01-05T23:01:38.869Z,5.78
2023-01-05T23:04:09.417Z,5.70
2023-01-05T23:06:41.468Z,5.68
2023-01-05T23:09:13.674Z,5.64
2023-01-05T23:11:46.219Z,5.74
2023-01-05T23:14:18.472Z,5.72
2023-01-05T23:16:48.336Z,5.74
2023-01-05T23:19:18.243Z,5.60
2023-01-05T23:21:50.303Z,5.55
2023-01-05T23:24:19.793Z,5.57
2023-01-05T23:26:49.268Z,5.54
2023-01-05T23:29:19.852Z,5.53
2023-01-05T23:31:49.393Z,5.54
2023-01-05T23:34:20.094Z,5.58
2023-01-05T23:36:52.376Z,5.54
2023-01-05T23:39:21.914Z,5.61
2023-01-05T23:41:51.403Z,5.58
2023-01-05T23:44:20.927Z,5.53
2023-01-05T23:46:51.458Z,5.58
2023-01-05T23:49:20.955Z,5.48
2023-01-05T23:51:52.999Z,5.47
2023-01-05T23:54:22.472Z,5.47
2023-01-05T23:56:51.866Z,5.51
2023-01-05T23:59:21.312Z,5.58
